sensor_id;sensor_type;location;lat;lon;timestamp;P1;durP1;ratioP1;P2;durP2;ratioP2
65715;SDS011;63484;52.054;8.518;2023-06-22T00:03:09;4.88;;;4.30;;
65715;SDS011;63484;52.054;8.518;2023-06-22T00:08:10;8.52;;;4.40;;
65715;SDS011;63484;52.054;8.518;2023-06-22T00:13:12;6.95;;;4.57;;
65715;SDS011;63484;52.054;8.518;2023-06-22T00:18:17;9.60;;;4.57;;
65715;SDS011;63484;52.054;8.518;2023-06-22T00:23:18;9.90;;;4.18;;
65715;SDS011;63484;52.054;8.518;2023-06-22T00:28:20;10.68;;;4.10;;
65715;SDS011;63484;52.054;8.518;2023-06-22T00:33:25;7.22;;;4.50;;
65715;SDS011;63484;52.054;8.518;2023-06-22T00:38:30;9.77;;;3.92;;
65715;SDS011;63484;52.054;8.518;2023-06-22T00:43:35;8.45;;;4.18;;
65715;SDS011;63484;52.054;8.518;2023-06-22T00:48:38;8.00;;;4.93;;
65715;SDS011;63484;52.054;8.518;2023-06-22T00:53:42;9.00;;;5.07;;
65715;SDS011;63484;52.054;8.518;2023-06-22T00:58:44;9.43;;;4.50;;
65715;SDS011;63484;52.054;8.518;2023-06-22T01:03:48;8.77;;;4.90;;
65715;SDS011;63484;52.054;8.518;2023-06-22T01:08:51;7.45;;;5.00;;
65715;SDS011;63484;52.054;8.518;2023-06-22T01:14:03;6.75;;;4.60;;
65715;SDS011;63484;52.054;8.518;2023-06-22T01:19:15;8.70;;;5.03;;
65715;SDS011;63484;52.054;8.518;2023-06-22T01:24:32;7.80;;;5.30;;
65715;SDS011;63484;52.054;8.518;2023-06-22T01:29:44;8.48;;;5.03;;
65715;SDS011;63484;52.054;8.518;2023-06-22T01:34:47;7.70;;;5.32;;
65715;SDS011;63484;52.054;8.518;2023-06-22T01:39:50;13.93;;;5.93;;
65715;SDS011;63484;52.054;8.518;2023-06-22T01:44:53;11.15;;;6.25;;
65715;SDS011;63484;52.054;8.518;2023-06-22T01:49:58;11.95;;;6.03;;
65715;SDS011;63484;52.054;8.518;2023-06-22T01:55:01;10.40;;;6.15;;
65715;SDS011;63484;52.054;8.518;2023-06-22T02:05:15;10.95;;;6.57;;
65715;SDS011;63484;52.054;8.518;2023-06-22T02:10:19;9.82;;;6.60;;
65715;SDS011;63484;52.054;8.518;2023-06-22T02:15:24;10.82;;;7.00;;
65715;SDS011;63484;52.054;8.518;2023-06-22T02:20:28;15.38;;;7.43;;
65715;SDS011;63484;52.054;8.518;2023-06-22T02:25:30;10.27;;;7.53;;
65715;SDS011;63484;52.054;8.518;2023-06-22T02:30:34;15.15;;;8.45;;
65715;SDS011;63484;52.054;8.518;2023-06-22T02:35:35;16.27;;;7.78;;
65715;SDS011;63484;52.054;8.518;2023-06-22T02:40:37;12.48;;;7.75;;
65715;SDS011;63484;52.054;8.518;2023-06-22T02:45:40;15.80;;;8.60;;
65715;SDS011;63484;52.054;8.518;2023-06-22T02:50:45;13.52;;;8.52;;
65715;SDS011;63484;52.054;8.518;2023-06-22T02:55:47;14.75;;;8.63;;
65715;SDS011;63484;52.054;8.518;2023-06-22T03:00:50;13.38;;;9.38;;
65715;SDS011;63484;52.054;8.518;2023-06-22T03:05:53;15.52;;;9.57;;
65715;SDS011;63484;52.054;8.518;2023-06-22T03:10:57;16.00;;;9.73;;
65715;SDS011;63484;52.054;8.518;2023-06-22T03:16:00;17.33;;;10.30;;
65715;SDS011;63484;52.054;8.518;2023-06-22T03:21:01;16.23;;;10.10;;
65715;SDS011;63484;52.054;8.518;2023-06-22T03:26:04;17.00;;;11.15;;
65715;SDS011;63484;52.054;8.518;2023-06-22T03:31:07;15.52;;;10.88;;
65715;SDS011;63484;52.054;8.518;2023-06-22T03:36:11;15.15;;;10.77;;
65715;SDS011;63484;52.054;8.518;2023-06-22T03:41:13;17.83;;;11.43;;
65715;SDS011;63484;52.054;8.518;2023-06-22T03:46:16;14.60;;;10.32;;
65715;SDS011;63484;52.054;8.518;2023-06-22T03:51:18;17.77;;;11.13;;
65715;SDS011;63484;52.054;8.518;2023-06-22T03:56:19;18.70;;;10.57;;
65715;SDS011;63484;52.054;8.518;2023-06-22T04:01:23;15.50;;;10.30;;
65715;SDS011;63484;52.054;8.518;2023-06-22T04:06:24;18.63;;;11.60;;
65715;SDS011;63484;52.054;8.518;2023-06-22T04:11:26;14.80;;;11.07;;
65715;SDS011;63484;52.054;8.518;2023-06-22T04:16:29;18.67;;;11.18;;
65715;SDS011;63484;52.054;8.518;2023-06-22T04:21:31;17.67;;;10.98;;
65715;SDS011;63484;52.054;8.518;2023-06-22T04:26:35;24.42;;;12.25;;
65715;SDS011;63484;52.054;8.518;2023-06-22T04:31:38;19.33;;;11.27;;
65715;SDS011;63484;52.054;8.518;2023-06-22T04:36:41;17.55;;;11.25;;
65715;SDS011;63484;52.054;8.518;2023-06-22T04:41:43;15.65;;;10.82;;
65715;SDS011;63484;52.054;8.518;2023-06-22T04:46:46;15.13;;;10.65;;
65715;SDS011;63484;52.054;8.518;2023-06-22T04:51:53;21.33;;;11.32;;
65715;SDS011;63484;52.054;8.518;2023-06-22T04:56:55;18.27;;;11.75;;
65715;SDS011;63484;52.054;8.518;2023-06-22T05:01:59;16.80;;;10.50;;
65715;SDS011;63484;52.054;8.518;2023-06-22T05:07:02;16.52;;;11.55;;
65715;SDS011;63484;52.054;8.518;2023-06-22T05:12:05;18.38;;;11.10;;
65715;SDS011;63484;52.054;8.518;2023-06-22T05:17:09;16.40;;;11.25;;
65715;SDS011;63484;52.054;8.518;2023-06-22T05:22:14;15.98;;;11.13;;
65715;SDS011;63484;52.054;8.518;2023-06-22T05:27:16;15.40;;;10.75;;
65715;SDS011;63484;52.054;8.518;2023-06-22T05:32:21;14.45;;;11.32;;
65715;SDS011;63484;52.054;8.518;2023-06-22T05:37:23;17.23;;;12.15;;
65715;SDS011;63484;52.054;8.518;2023-06-22T05:42:27;15.70;;;11.55;;
65715;SDS011;63484;52.054;8.518;2023-06-22T05:47:31;16.97;;;11.90;;
65715;SDS011;63484;52.054;8.518;2023-06-22T05:52:35;19.30;;;12.43;;
65715;SDS011;63484;52.054;8.518;2023-06-22T05:57:37;16.33;;;11.52;;
65715;SDS011;63484;52.054;8.518;2023-06-22T06:02:40;15.50;;;10.70;;
65715;SDS011;63484;52.054;8.518;2023-06-22T06:07:44;17.17;;;11.93;;
65715;SDS011;63484;52.054;8.518;2023-06-22T06:12:48;17.63;;;12.05;;
65715;SDS011;63484;52.054;8.518;2023-06-22T06:17:54;19.08;;;11.73;;
65715;SDS011;63484;52.054;8.518;2023-06-22T06:22:56;17.25;;;12.27;;
65715;SDS011;63484;52.054;8.518;2023-06-22T06:27:57;18.58;;;11.30;;
65715;SDS011;63484;52.054;8.518;2023-06-22T06:33:00;15.48;;;11.73;;
65715;SDS011;63484;52.054;8.518;2023-06-22T06:38:02;17.48;;;11.93;;
65715;SDS011;63484;52.054;8.518;2023-06-22T06:43:04;15.50;;;10.73;;
65715;SDS011;63484;52.054;8.518;2023-06-22T06:48:07;18.55;;;12.25;;
65715;SDS011;63484;52.054;8.518;2023-06-22T06:53:09;19.70;;;10.80;;
65715;SDS011;63484;52.054;8.518;2023-06-22T06:58:11;19.90;;;12.10;;
65715;SDS011;63484;52.054;8.518;2023-06-22T07:03:14;17.90;;;11.47;;
65715;SDS011;63484;52.054;8.518;2023-06-22T07:13:18;18.88;;;11.55;;
65715;SDS011;63484;52.054;8.518;2023-06-22T07:18:21;17.30;;;11.30;;
65715;SDS011;63484;52.054;8.518;2023-06-22T07:23:22;18.23;;;12.05;;
65715;SDS011;63484;52.054;8.518;2023-06-22T07:28:24;17.23;;;12.10;;
65715;SDS011;63484;52.054;8.518;2023-06-22T07:33:27;17.70;;;12.48;;
65715;SDS011;63484;52.054;8.518;2023-06-22T07:38:29;16.77;;;12.65;;
65715;SDS011;63484;52.054;8.518;2023-06-22T07:43:31;18.15;;;12.15;;
65715;SDS011;63484;52.054;8.518;2023-06-22T07:48:38;18.50;;;12.25;;
65715;SDS011;63484;52.054;8.518;2023-06-22T07:53:41;21.25;;;12.73;;
65715;SDS011;63484;52.054;8.518;2023-06-22T07:58:44;19.17;;;12.73;;
65715;SDS011;63484;52.054;8.518;2023-06-22T08:03:47;14.13;;;11.27;;
65715;SDS011;63484;52.054;8.518;2023-06-22T08:18:57;19.20;;;12.90;;
65715;SDS011;63484;52.054;8.518;2023-06-22T08:24:01;17.52;;;11.60;;
65715;SDS011;63484;52.054;8.518;2023-06-22T08:29:03;19.60;;;12.35;;
65715;SDS011;63484;52.054;8.518;2023-06-22T08:34:06;20.65;;;11.63;;
65715;SDS011;63484;52.054;8.518;2023-06-22T08:39:10;16.50;;;11.48;;
65715;SDS011;63484;52.054;8.518;2023-06-22T08:44:16;20.92;;;12.25;;
65715;SDS011;63484;52.054;8.518;2023-06-22T08:49:21;14.98;;;11.65;;
65715;SDS011;63484;52.054;8.518;2023-06-22T08:59:24;17.20;;;11.90;;
65715;SDS011;63484;52.054;8.518;2023-06-22T09:04:29;16.00;;;11.73;;
65715;SDS011;63484;52.054;8.518;2023-06-22T09:09:34;16.17;;;11.20;;
65715;SDS011;63484;52.054;8.518;2023-06-22T09:14:36;15.93;;;10.57;;
65715;SDS011;63484;52.054;8.518;2023-06-22T09:19:39;12.85;;;10.70;;
65715;SDS011;63484;52.054;8.518;2023-06-22T09:24:41;15.63;;;10.95;;
65715;SDS011;63484;52.054;8.518;2023-06-22T09:29:45;14.38;;;9.55;;
65715;SDS011;63484;52.054;8.518;2023-06-22T09:34:48;11.15;;;9.02;;
65715;SDS011;63484;52.054;8.518;2023-06-22T09:39:50;14.55;;;9.43;;
65715;SDS011;63484;52.054;8.518;2023-06-22T09:44:52;13.90;;;9.13;;
65715;SDS011;63484;52.054;8.518;2023-06-22T09:49:55;11.75;;;9.40;;
65715;SDS011;63484;52.054;8.518;2023-06-22T09:54:59;14.52;;;9.35;;
65715;SDS011;63484;52.054;8.518;2023-06-22T10:00:01;8.88;;;7.85;;
65715;SDS011;63484;52.054;8.518;2023-06-22T10:05:07;13.45;;;8.00;;
65715;SDS011;63484;52.054;8.518;2023-06-22T10:10:09;10.02;;;6.70;;
65715;SDS011;63484;52.054;8.518;2023-06-22T10:15:11;9.55;;;7.45;;
65715;SDS011;63484;52.054;8.518;2023-06-22T10:20:14;10.90;;;7.90;;
65715;SDS011;63484;52.054;8.518;2023-06-22T10:25:20;12.70;;;7.47;;
65715;SDS011;63484;52.054;8.518;2023-06-22T10:30:22;9.48;;;7.65;;
65715;SDS011;63484;52.054;8.518;2023-06-22T10:35:28;11.48;;;8.80;;
65715;SDS011;63484;52.054;8.518;2023-06-22T10:40:32;10.40;;;9.05;;
65715;SDS011;63484;52.054;8.518;2023-06-22T10:45:34;11.17;;;8.23;;
65715;SDS011;63484;52.054;8.518;2023-06-22T10:50:39;10.95;;;8.45;;
65715;SDS011;63484;52.054;8.518;2023-06-22T10:55:41;13.25;;;8.80;;
65715;SDS011;63484;52.054;8.518;2023-06-22T11:00:45;12.57;;;9.48;;
65715;SDS011;63484;52.054;8.518;2023-06-22T11:05:48;9.07;;;8.03;;
65715;SDS011;63484;52.054;8.518;2023-06-22T11:10:50;11.80;;;9.32;;
65715;SDS011;63484;52.054;8.518;2023-06-22T11:15:54;12.23;;;8.75;;
65715;SDS011;63484;52.054;8.518;2023-06-22T11:20:58;11.27;;;8.60;;
65715;SDS011;63484;52.054;8.518;2023-06-22T11:25:59;11.35;;;9.02;;
65715;SDS011;63484;52.054;8.518;2023-06-22T11:31:03;9.60;;;8.55;;
65715;SDS011;63484;52.054;8.518;2023-06-22T11:36:08;12.98;;;7.85;;
65715;SDS011;63484;52.054;8.518;2023-06-22T11:41:13;12.38;;;8.55;;
65715;SDS011;63484;52.054;8.518;2023-06-22T11:46:15;13.38;;;9.63;;
65715;SDS011;63484;52.054;8.518;2023-06-22T11:51:18;13.90;;;11.50;;
65715;SDS011;63484;52.054;8.518;2023-06-22T11:56:22;13.23;;;10.07;;
65715;SDS011;63484;52.054;8.518;2023-06-22T12:01:24;13.85;;;9.20;;
65715;SDS011;63484;52.054;8.518;2023-06-22T12:06:30;11.35;;;9.45;;
65715;SDS011;63484;52.054;8.518;2023-06-22T12:11:34;11.60;;;9.32;;
65715;SDS011;63484;52.054;8.518;2023-06-22T12:16:38;9.55;;;8.30;;
65715;SDS011;63484;52.054;8.518;2023-06-22T12:21:41;9.70;;;7.05;;
65715;SDS011;63484;52.054;8.518;2023-06-22T12:26:45;10.32;;;7.82;;
65715;SDS011;63484;52.054;8.518;2023-06-22T12:31:49;9.38;;;7.63;;
65715;SDS011;63484;52.054;8.518;2023-06-22T12:36:54;9.95;;;7.55;;
65715;SDS011;63484;52.054;8.518;2023-06-22T12:41:56;10.30;;;8.55;;
65715;SDS011;63484;52.054;8.518;2023-06-22T12:46:58;12.32;;;9.20;;
65715;SDS011;63484;52.054;8.518;2023-06-22T12:52:01;13.60;;;11.25;;
65715;SDS011;63484;52.054;8.518;2023-06-22T12:57:03;15.73;;;12.10;;
65715;SDS011;63484;52.054;8.518;2023-06-22T13:02:05;15.93;;;12.17;;
65715;SDS011;63484;52.054;8.518;2023-06-22T13:07:08;21.42;;;13.25;;
65715;SDS011;63484;52.054;8.518;2023-06-22T13:12:10;16.20;;;13.15;;
65715;SDS011;63484;52.054;8.518;2023-06-22T13:17:14;20.10;;;14.35;;
65715;SDS011;63484;52.054;8.518;2023-06-22T13:22:30;21.85;;;15.02;;
65715;SDS011;63484;52.054;8.518;2023-06-22T13:27:33;20.35;;;13.68;;
65715;SDS011;63484;52.054;8.518;2023-06-22T13:32:34;42.58;;;28.15;;
65715;SDS011;63484;52.054;8.518;2023-06-22T13:37:37;19.85;;;13.05;;
65715;SDS011;63484;52.054;8.518;2023-06-22T13:47:41;20.92;;;14.93;;
65715;SDS011;63484;52.054;8.518;2023-06-22T13:52:44;23.65;;;15.57;;
65715;SDS011;63484;52.054;8.518;2023-06-22T13:57:45;26.83;;;15.70;;
65715;SDS011;63484;52.054;8.518;2023-06-22T14:02:47;26.88;;;17.73;;
65715;SDS011;63484;52.054;8.518;2023-06-22T14:07:53;31.15;;;17.63;;
65715;SDS011;63484;52.054;8.518;2023-06-22T14:12:54;30.27;;;19.05;;
65715;SDS011;63484;52.054;8.518;2023-06-22T14:17:56;28.33;;;19.23;;
65715;SDS011;63484;52.054;8.518;2023-06-22T14:22:59;27.15;;;18.60;;
65715;SDS011;63484;52.054;8.518;2023-06-22T14:28:01;24.52;;;16.77;;
65715;SDS011;63484;52.054;8.518;2023-06-22T14:33:02;19.90;;;15.07;;
65715;SDS011;63484;52.054;8.518;2023-06-22T14:38:06;22.60;;;15.88;;
65715;SDS011;63484;52.054;8.518;2023-06-22T14:43:08;21.70;;;15.10;;
65715;SDS011;63484;52.054;8.518;2023-06-22T14:48:09;26.35;;;16.33;;
65715;SDS011;63484;52.054;8.518;2023-06-22T14:53:15;25.73;;;15.48;;
65715;SDS011;63484;52.054;8.518;2023-06-22T14:58:18;20.88;;;15.50;;
65715;SDS011;63484;52.054;8.518;2023-06-22T15:03:20;22.27;;;15.40;;
65715;SDS011;63484;52.054;8.518;2023-06-22T15:08:27;20.80;;;15.80;;
65715;SDS011;63484;52.054;8.518;2023-06-22T15:13:30;21.48;;;15.43;;
65715;SDS011;63484;52.054;8.518;2023-06-22T15:18:34;22.48;;;15.40;;
65715;SDS011;63484;52.054;8.518;2023-06-22T15:23:38;19.58;;;14.68;;
65715;SDS011;63484;52.054;8.518;2023-06-22T15:28:40;20.50;;;14.07;;
65715;SDS011;63484;52.054;8.518;2023-06-22T15:33:41;18.17;;;14.38;;
65715;SDS011;63484;52.054;8.518;2023-06-22T15:38:47;20.80;;;15.05;;
65715;SDS011;63484;52.054;8.518;2023-06-22T15:43:48;24.40;;;15.95;;
65715;SDS011;63484;52.054;8.518;2023-06-22T15:48:50;21.67;;;16.02;;
65715;SDS011;63484;52.054;8.518;2023-06-22T15:53:55;21.05;;;15.52;;
65715;SDS011;63484;52.054;8.518;2023-06-22T15:58:57;23.73;;;17.60;;
65715;SDS011;63484;52.054;8.518;2023-06-22T16:04:01;22.33;;;16.95;;
65715;SDS011;63484;52.054;8.518;2023-06-22T16:09:04;23.83;;;16.02;;
65715;SDS011;63484;52.054;8.518;2023-06-22T16:14:06;22.88;;;15.75;;
65715;SDS011;63484;52.054;8.518;2023-06-22T16:19:08;26.10;;;16.43;;
65715;SDS011;63484;52.054;8.518;2023-06-22T16:24:12;26.52;;;16.73;;
65715;SDS011;63484;52.054;8.518;2023-06-22T16:29:14;24.52;;;17.13;;
65715;SDS011;63484;52.054;8.518;2023-06-22T16:34:18;23.13;;;17.77;;
65715;SDS011;63484;52.054;8.518;2023-06-22T16:39:21;26.05;;;19.08;;
65715;SDS011;63484;52.054;8.518;2023-06-22T16:44:25;27.95;;;19.50;;
65715;SDS011;63484;52.054;8.518;2023-06-22T16:49:27;29.92;;;20.52;;
65715;SDS011;63484;52.054;8.518;2023-06-22T16:54:30;28.88;;;19.52;;
65715;SDS011;63484;52.054;8.518;2023-06-22T16:59:31;27.30;;;18.70;;
65715;SDS011;63484;52.054;8.518;2023-06-22T17:04:33;23.00;;;17.65;;
65715;SDS011;63484;52.054;8.518;2023-06-22T17:09:39;27.13;;;18.73;;
65715;SDS011;63484;52.054;8.518;2023-06-22T17:14:43;28.40;;;18.38;;
65715;SDS011;63484;52.054;8.518;2023-06-22T17:19:45;29.63;;;19.83;;
65715;SDS011;63484;52.054;8.518;2023-06-22T17:24:49;26.08;;;18.88;;
65715;SDS011;63484;52.054;8.518;2023-06-22T17:29:55;27.63;;;19.15;;
65715;SDS011;63484;52.054;8.518;2023-06-22T17:35:05;28.67;;;20.00;;
65715;SDS011;63484;52.054;8.518;2023-06-22T17:40:10;31.40;;;19.65;;
65715;SDS011;63484;52.054;8.518;2023-06-22T17:45:15;26.83;;;19.20;;
65715;SDS011;63484;52.054;8.518;2023-06-22T17:50:18;31.63;;;20.23;;
65715;SDS011;63484;52.054;8.518;2023-06-22T17:55:24;32.40;;;21.67;;
65715;SDS011;63484;52.054;8.518;2023-06-22T18:00:27;28.00;;;20.35;;
65715;SDS011;63484;52.054;8.518;2023-06-22T18:05:29;30.47;;;20.40;;
65715;SDS011;63484;52.054;8.518;2023-06-22T18:10:35;30.50;;;21.25;;
65715;SDS011;63484;52.054;8.518;2023-06-22T18:15:39;27.67;;;20.73;;
65715;SDS011;63484;52.054;8.518;2023-06-22T18:20:41;30.08;;;21.30;;
65715;SDS011;63484;52.054;8.518;2023-06-22T18:25:45;31.85;;;21.67;;
65715;SDS011;63484;52.054;8.518;2023-06-22T18:30:50;28.88;;;20.80;;
65715;SDS011;63484;52.054;8.518;2023-06-22T18:35:52;29.77;;;21.88;;
65715;SDS011;63484;52.054;8.518;2023-06-22T18:40:58;31.65;;;22.20;;
65715;SDS011;63484;52.054;8.518;2023-06-22T18:51:44;34.15;;;23.73;;
65715;SDS011;63484;52.054;8.518;2023-06-22T18:56:55;34.90;;;23.55;;
65715;SDS011;63484;52.054;8.518;2023-06-22T19:01:59;32.22;;;23.15;;
65715;SDS011;63484;52.054;8.518;2023-06-22T19:12:20;28.08;;;21.85;;
65715;SDS011;63484;52.054;8.518;2023-06-22T19:17:23;28.65;;;20.98;;
65715;SDS011;63484;52.054;8.518;2023-06-22T19:22:37;28.20;;;20.20;;
65715;SDS011;63484;52.054;8.518;2023-06-22T19:27:46;23.42;;;19.40;;
65715;SDS011;63484;52.054;8.518;2023-06-22T19:32:51;28.98;;;20.83;;
65715;SDS011;63484;52.054;8.518;2023-06-22T19:37:52;28.05;;;20.88;;
65715;SDS011;63484;52.054;8.518;2023-06-22T19:42:55;26.63;;;18.63;;
65715;SDS011;63484;52.054;8.518;2023-06-22T19:47:57;26.55;;;19.17;;
65715;SDS011;63484;52.054;8.518;2023-06-22T19:52:59;26.30;;;19.88;;
65715;SDS011;63484;52.054;8.518;2023-06-22T19:58:02;30.33;;;20.50;;
65715;SDS011;63484;52.054;8.518;2023-06-22T20:03:07;29.52;;;21.30;;
65715;SDS011;63484;52.054;8.518;2023-06-22T20:08:10;28.23;;;21.13;;
65715;SDS011;63484;52.054;8.518;2023-06-22T20:13:14;29.17;;;21.02;;
65715;SDS011;63484;52.054;8.518;2023-06-22T20:18:17;28.13;;;21.35;;
65715;SDS011;63484;52.054;8.518;2023-06-22T20:23:20;28.08;;;20.40;;
65715;SDS011;63484;52.054;8.518;2023-06-22T20:28:24;27.80;;;20.35;;
65715;SDS011;63484;52.054;8.518;2023-06-22T20:33:26;31.48;;;19.80;;
65715;SDS011;63484;52.054;8.518;2023-06-22T20:38:30;26.52;;;19.42;;
65715;SDS011;63484;52.054;8.518;2023-06-22T20:43:34;29.17;;;19.57;;
65715;SDS011;63484;52.054;8.518;2023-06-22T20:48:36;27.73;;;19.67;;
65715;SDS011;63484;52.054;8.518;2023-06-22T20:53:38;25.58;;;19.20;;
65715;SDS011;63484;52.054;8.518;2023-06-22T20:58:43;28.98;;;19.55;;
65715;SDS011;63484;52.054;8.518;2023-06-22T21:03:45;28.08;;;18.48;;
65715;SDS011;63484;52.054;8.518;2023-06-22T21:08:49;25.17;;;18.33;;
65715;SDS011;63484;52.054;8.518;2023-06-22T21:13:52;25.52;;;18.85;;
65715;SDS011;63484;52.054;8.518;2023-06-22T21:18:54;31.80;;;18.90;;
65715;SDS011;63484;52.054;8.518;2023-06-22T21:23:58;27.90;;;19.33;;
65715;SDS011;63484;52.054;8.518;2023-06-22T21:29:01;27.85;;;19.08;;
65715;SDS011;63484;52.054;8.518;2023-06-22T21:34:04;28.60;;;20.17;;
65715;SDS011;63484;52.054;8.518;2023-06-22T21:39:08;30.65;;;19.92;;
65715;SDS011;63484;52.054;8.518;2023-06-22T21:44:11;31.95;;;19.70;;
65715;SDS011;63484;52.054;8.518;2023-06-22T21:49:13;32.22;;;20.02;;
65715;SDS011;63484;52.054;8.518;2023-06-22T21:54:16;27.23;;;20.73;;
65715;SDS011;63484;52.054;8.518;2023-06-22T21:59:19;30.48;;;19.08;;
65715;SDS011;63484;52.054;8.518;2023-06-22T22:04:24;30.42;;;21.00;;
65715;SDS011;63484;52.054;8.518;2023-06-22T22:09:26;27.35;;;19.77;;
65715;SDS011;63484;52.054;8.518;2023-06-22T22:14:29;26.80;;;17.73;;
65715;SDS011;63484;52.054;8.518;2023-06-22T22:19:32;24.50;;;18.35;;
65715;SDS011;63484;52.054;8.518;2023-06-22T22:24:36;25.33;;;19.05;;
65715;SDS011;63484;52.054;8.518;2023-06-22T22:29:39;28.95;;;19.50;;
65715;SDS011;63484;52.054;8.518;2023-06-22T22:34:41;29.85;;;18.02;;
65715;SDS011;63484;52.054;8.518;2023-06-22T22:39:43;23.63;;;17.67;;
65715;SDS011;63484;52.054;8.518;2023-06-22T22:44:46;26.33;;;18.45;;
65715;SDS011;63484;52.054;8.518;2023-06-22T22:49:47;29.55;;;20.70;;
65715;SDS011;63484;52.054;8.518;2023-06-22T22:54:49;29.70;;;21.13;;
65715;SDS011;63484;52.054;8.518;2023-06-22T22:59:52;39.22;;;23.00;;
65715;SDS011;63484;52.054;8.518;2023-06-22T23:04:54;33.63;;;22.38;;
65715;SDS011;63484;52.054;8.518;2023-06-22T23:09:56;34.43;;;22.07;;
65715;SDS011;63484;52.054;8.518;2023-06-22T23:15:00;33.00;;;21.08;;
65715;SDS011;63484;52.054;8.518;2023-06-22T23:25:05;30.77;;;20.52;;
65715;SDS011;63484;52.054;8.518;2023-06-22T23:30:11;27.45;;;20.23;;
65715;SDS011;63484;52.054;8.518;2023-06-22T23:35:18;28.48;;;20.20;;
65715;SDS011;63484;52.054;8.518;2023-06-22T23:40:20;32.85;;;18.80;;
65715;SDS011;63484;52.054;8.518;2023-06-22T23:45:26;26.42;;;16.27;;
65715;SDS011;63484;52.054;8.518;2023-06-22T23:50:28;26.08;;;16.90;;
65715;SDS011;63484;52.054;8.518;2023-06-22T23:55:29;28.50;;;18.17;;
